Burnside, PA (15721)

3:59 AM EST on December 10, 2016 (GMT -0500)
Purchase Line | | Change Station

Elev 1716 ft 40.73 °N, 78.92 °W | Updated 4 seconds ago

Overcast
Overcast
22.4 °F
Feels Like 11 °F
N
11.8
Wind Variable Wind from WNW
Gusts 21.6 mph

Today
High -- | Low -- °F
--% Chance of Precip.
Yesterday
High -- | Low -- °F
Precip. -- in
Pressure 30.39 in
Visibility 10.0 miles
Clouds Overcast 2300 ft
Windchill 11 °F
Dew Point 17 °F
Humidity 77%
Rainfall 0.00 in
Snow Depth Not available.
7:28 AM 4:47 PM
Waxing Gibbous, 82% visible
METAR KIDI 100855Z AUTO 27012KT 10SM OVC023 M04/M08 A3039 RMK A01
Pressure 30.39 in
Visibility 10.0 miles
Clouds Overcast 2300 ft
Windchill 11 °F
Dew Point 17 °F
Humidity 77%
Rainfall 0.00 in
Snow Depth Not available.
7:28 AM 4:47 PM
Waxing Gibbous, 82% visible
METAR KIDI 100855Z AUTO 27012KT 10SM OVC023 M04/M08 A3039 RMK A01

10-Day Weather Forecast

Almanac

Astronomy

Dec. 10, 2016 Rise Set
Actual Time
Civil Twilight
Nautical Twilight
Astronomical Twilight
Moon
Length of Visible Light
Length of Day
Tomorrow will be .
, % of the Moon is Illuminated

Today's Extremes

State Highs State Lows

Community

WunderPhotos

Upload Photos

1,956,538 photos uploaded!

WunderBlog® & News

Nearby

Air Quality

  Air Quality AQ Index Pollutant
Not available.

Snow Depth

Station Depth Elevation

Earthquake Activity

City Distance Mag. Time & Date
Minimum magnitude displayed is 2.5.

Coastal Water Temperatures

Place Temperature

Stations

Nearby Weather Stations

Station Location Temp. Windchill Dew Point Humidity Wind Precip. Elev Updated Type
                   

Watches & Warnings

There are currently no watches in effect.